createdAt,value
2023-05-22T00:01:19.566Z,13.05
2023-05-22T00:03:46.750Z,12.99
2023-05-22T00:06:15.164Z,13.03
2023-05-22T00:08:42.149Z,13.02
2023-05-22T00:11:09.160Z,12.99
2023-05-22T00:13:36.245Z,13.03
2023-05-22T00:16:03.625Z,13.04
2023-05-22T00:18:30.783Z,13.05
2023-05-22T00:20:58.219Z,12.97
2023-05-22T00:23:27.994Z,12.93
2023-05-22T00:25:55.032Z,12.92
2023-05-22T00:28:22.184Z,12.93
2023-05-22T00:30:49.233Z,12.90
2023-05-22T00:33:16.348Z,12.86
2023-05-22T00:35:43.507Z,12.83
2023-05-22T00:38:32.715Z,12.76
2023-05-22T00:41:01.234Z,12.75
2023-05-22T00:43:28.678Z,12.69
2023-05-22T00:45:56.607Z,12.61
2023-05-22T00:48:24.628Z,12.62
2023-05-22T00:50:55.452Z,12.59
2023-05-22T00:53:24.532Z,12.57
2023-05-22T00:55:53.672Z,12.53
2023-05-22T00:58:21.981Z,12.54
2023-05-22T01:00:49.224Z,12.57
2023-05-22T01:03:17.794Z,12.60
2023-05-22T01:05:45.979Z,12.50
2023-05-22T01:08:13.061Z,12.47
2023-05-22T01:10:41.229Z,12.40
2023-05-22T01:13:34.485Z,12.33
2023-05-22T01:16:26.291Z,12.27
2023-05-22T01:19:11.290Z,12.12
2023-05-22T01:22:01.021Z,12.05
2023-05-22T01:24:46.895Z,12.12
2023-05-22T01:27:26.253Z,12.04
2023-05-22T01:30:11.616Z,11.83
2023-05-22T01:32:42.483Z,11.65
2023-05-22T01:35:12.970Z,11.61
2023-05-22T01:37:42.303Z,11.60
2023-05-22T01:40:10.717Z,11.55
2023-05-22T01:42:41.247Z,11.41
2023-05-22T01:45:11.247Z,11.31
2023-05-22T01:47:38.924Z,11.21
2023-05-22T01:50:07.130Z,11.15
2023-05-22T01:52:54.220Z,10.99
2023-05-22T01:55:40.498Z,10.95
2023-05-22T01:58:53.122Z,10.91
2023-05-22T02:01:22.726Z,10.89
2023-05-22T02:03:56.331Z,10.72
2023-05-22T02:06:29.324Z,10.67
2023-05-22T02:08:57.190Z,10.74
2023-05-22T02:11:27.007Z,10.75
2023-05-22T02:13:54.354Z,10.69
2023-05-22T02:16:22.397Z,10.61
2023-05-22T02:18:49.698Z,10.46
2023-05-22T02:21:16.826Z,10.24
2023-05-22T02:23:43.916Z,10.13
2023-05-22T02:26:11.183Z,10.10
2023-05-22T02:28:38.286Z,10.05
2023-05-22T02:31:07.027Z,10.04
2023-05-22T02:33:34.116Z,10.07
2023-05-22T02:36:01.283Z,10.14
2023-05-22T02:38:28.444Z,10.09
2023-05-22T02:40:55.571Z,10.05
2023-05-22T02:43:22.586Z,9.97
2023-05-22T02:45:49.708Z,9.95
2023-05-22T02:48:17.618Z,9.99
2023-05-22T02:50:44.750Z,9.97
2023-05-22T02:53:12.145Z,10.04
2023-05-22T02:55:39.172Z,10.11
2023-05-22T02:58:06.602Z,10.09
2023-05-22T03:00:33.639Z,10.12
2023-05-22T03:03:00.902Z,10.13
2023-05-22T03:05:27.978Z,10.02
2023-05-22T03:07:55.030Z,9.90
2023-05-22T03:10:22.913Z,9.89
2023-05-22T03:12:51.883Z,9.94
2023-05-22T03:15:19.405Z,10.10
2023-05-22T03:17:47.603Z,10.16
2023-05-22T03:20:16.980Z,10.19
2023-05-22T03:22:45.888Z,10.28
2023-05-22T03:25:13.353Z,10.40
2023-05-22T03:27:43.758Z,10.44
2023-05-22T03:30:11.383Z,10.47
2023-05-22T03:32:41.179Z,10.47
2023-05-22T03:35:08.865Z,10.54
2023-05-22T03:37:36.133Z,10.68
2023-05-22T03:40:04.973Z,10.82
2023-05-22T03:42:32.089Z,10.93
2023-05-22T03:44:59.162Z,11.02
2023-05-22T03:47:26.981Z,11.11
2023-05-22T03:49:54.084Z,11.21
2023-05-22T03:52:23.021Z,11.26
2023-05-22T03:54:50.046Z,11.25
2023-05-22T03:57:19.969Z,11.34
2023-05-22T03:59:47.234Z,11.45
2023-05-22T04:02:16.890Z,11.58
2023-05-22T04:04:46.486Z,11.67
2023-05-22T04:07:13.816Z,11.72
2023-05-22T04:09:41.613Z,11.80
2023-05-22T04:12:08.917Z,11.82
2023-05-22T04:14:36.100Z,11.99
2023-05-22T04:17:03.272Z,12.12
2023-05-22T04:19:30.880Z,12.17
2023-05-22T04:21:58.680Z,12.33
2023-05-22T04:24:25.924Z,12.43
2023-05-22T04:26:53.393Z,12.52
2023-05-22T04:29:22.562Z,12.56
2023-05-22T04:31:49.648Z,12.62
2023-05-22T04:34:17.192Z,12.70
2023-05-22T04:36:45.393Z,12.74
2023-05-22T04:39:14.102Z,12.86
2023-05-22T04:41:41.495Z,12.85
2023-05-22T04:44:08.712Z,12.80
2023-05-22T04:46:36.219Z,12.91
2023-05-22T04:49:03.515Z,12.96
2023-05-22T04:51:32.420Z,12.97
2023-05-22T04:53:59.680Z,13.06
2023-05-22T04:56:35.986Z,13.17
2023-05-22T04:59:05.791Z,13.19
2023-05-22T05:01:35.359Z,13.19
2023-05-22T05:04:03.923Z,13.24
2023-05-22T05:06:31.099Z,13.38
2023-05-22T05:08:58.216Z,13.53
2023-05-22T05:11:26.200Z,13.70
2023-05-22T05:13:53.307Z,13.64
2023-05-22T05:16:20.344Z,13.72
2023-05-22T05:18:47.765Z,13.97
2023-05-22T05:21:14.827Z,14.03
2023-05-22T05:23:42.665Z,14.15
2023-05-22T05:26:09.729Z,14.33
2023-05-22T05:28:37.842Z,14.49
2023-05-22T05:31:07.896Z,14.61
2023-05-22T05:33:53.259Z,14.56
2023-05-22T05:36:29.898Z,14.63
2023-05-22T05:38:58.672Z,14.75
2023-05-22T05:41:27.118Z,15.01
2023-05-22T05:44:06.524Z,15.19
2023-05-22T05:46:34.126Z,15.20
2023-05-22T05:49:02.178Z,15.34
2023-05-22T05:51:29.343Z,15.58
2023-05-22T05:53:56.848Z,15.81
2023-05-22T05:56:24.710Z,16.08
2023-05-22T05:58:52.059Z,16.20
2023-05-22T06:01:44.659Z,16.15
2023-05-22T06:04:18.639Z,16.09
2023-05-22T06:06:49.962Z,16.09
2023-05-22T06:09:32.378Z,16.22
2023-05-22T06:12:17.835Z,16.44
2023-05-22T06:14:45.645Z,16.68
2023-05-22T06:17:15.700Z,16.87
2023-05-22T06:19:44.356Z,17.13
2023-05-22T06:22:12.287Z,17.20
2023-05-22T06:24:41.687Z,17.40
2023-05-22T06:27:13.968Z,17.79
2023-05-22T06:29:41.089Z,17.80
2023-05-22T06:32:09.469Z,17.81
2023-05-22T06:34:39.042Z,18.13
2023-05-22T06:37:07.177Z,18.42
2023-05-22T06:39:39.906Z,18.41
2023-05-22T06:42:27.440Z,18.74
2023-05-22T06:45:30.220Z,18.74
2023-05-22T06:48:23.938Z,19.02
2023-05-22T06:51:17.158Z,19.23
2023-05-22T06:53:50.741Z,19.31
2023-05-22T06:56:22.770Z,19.03
2023-05-22T06:59:12.134Z,19.08
2023-05-22T07:02:02.152Z,19.01
2023-05-22T07:04:37.637Z,19.14
2023-05-22T07:07:12.008Z,19.26
2023-05-22T07:09:39.650Z,19.19
2023-05-22T07:12:07.682Z,19.37
2023-05-22T07:14:34.776Z,19.39
2023-05-22T07:17:02.584Z,19.26
2023-05-22T07:19:36.141Z,19.20
2023-05-22T07:22:04.934Z,19.21
2023-05-22T07:24:34.550Z,19.42
2023-05-22T07:27:04.561Z,19.33
2023-05-22T07:29:33.087Z,19.53
2023-05-22T07:32:01.422Z,19.49
2023-05-22T07:34:33.378Z,19.62
2023-05-22T07:37:12.614Z,19.87
2023-05-22T07:39:41.230Z,20.24
2023-05-22T07:42:09.677Z,20.13
2023-05-22T07:44:43.545Z,20.38
2023-05-22T07:47:10.732Z,20.41
2023-05-22T07:49:38.882Z,20.57
2023-05-22T07:52:06.827Z,20.41
2023-05-22T07:54:34.469Z,20.78
2023-05-22T07:57:04.234Z,20.27
2023-05-22T07:59:37.865Z,20.47
2023-05-22T08:02:05.416Z,20.55
2023-05-22T08:04:32.625Z,20.69
2023-05-22T08:06:59.773Z,20.73
2023-05-22T08:09:26.984Z,21.17
2023-05-22T08:11:54.032Z,21.16
2023-05-22T08:14:22.356Z,21.08
2023-05-22T08:16:49.624Z,21.04
2023-05-22T08:19:16.919Z,21.21
2023-05-22T08:21:44.088Z,21.34
2023-05-22T08:24:11.270Z,21.30
2023-05-22T08:26:39.057Z,20.98
2023-05-22T08:29:06.232Z,20.94
2023-05-22T08:31:34.422Z,21.05
2023-05-22T08:34:05.098Z,20.94
2023-05-22T08:36:34.323Z,21.22
2023-05-22T08:39:02.065Z,21.52
2023-05-22T08:41:30.409Z,21.73
2023-05-22T08:43:57.654Z,21.77
2023-05-22T08:46:28.401Z,21.55
2023-05-22T08:48:59.131Z,21.37
2023-05-22T08:51:31.668Z,21.21
2023-05-22T08:54:00.818Z,21.00
2023-05-22T08:56:29.612Z,20.89
2023-05-22T08:58:58.817Z,20.79
2023-05-22T09:01:26.438Z,20.77
2023-05-22T09:03:54.121Z,20.78
2023-05-22T09:06:21.240Z,20.70
2023-05-22T09:08:50.065Z,20.80
2023-05-22T09:11:18.556Z,20.89
2023-05-22T09:13:45.938Z,20.85
2023-05-22T09:16:14.267Z,20.80
2023-05-22T09:18:45.039Z,20.78
2023-05-22T09:21:25.566Z,20.96
2023-05-22T09:24:01.480Z,21.34
2023-05-22T09:26:29.729Z,21.22
2023-05-22T09:28:59.645Z,21.31
2023-05-22T09:31:27.779Z,21.38
2023-05-22T09:33:56.284Z,21.46
2023-05-22T09:36:32.481Z,21.76
2023-05-22T09:39:03.186Z,21.74
2023-05-22T09:41:34.397Z,21.85
2023-05-22T09:44:02.127Z,21.57
2023-05-22T10:17:07.550Z,20.94
2023-05-22T10:19:38.431Z,20.87
2023-05-22T10:22:08.761Z,20.85
2023-05-22T10:24:36.326Z,20.87
2023-05-22T10:27:04.404Z,20.82
2023-05-22T10:29:37.747Z,20.92
2023-05-22T10:32:13.528Z,20.64
2023-05-22T10:34:59.713Z,20.71
2023-05-22T10:37:45.661Z,20.71
2023-05-22T10:40:22.250Z,21.00
2023-05-22T10:42:50.482Z,21.45
2023-05-22T10:45:18.960Z,21.81
2023-05-22T10:47:47.137Z,22.28
2023-05-22T10:50:14.481Z,22.75
2023-05-22T10:52:41.610Z,22.89
2023-05-22T10:55:10.932Z,22.92
2023-05-22T10:57:39.808Z,23.08
2023-05-22T11:00:18.836Z,22.95
2023-05-22T11:02:50.343Z,22.13
2023-05-22T11:05:22.467Z,22.44
2023-05-22T11:07:49.695Z,21.83
2023-05-22T11:10:27.006Z,21.83
2023-05-22T11:13:12.084Z,21.86
2023-05-22T11:15:45.921Z,21.70
2023-05-22T11:18:14.744Z,21.66
2023-05-22T11:20:42.451Z,21.76
2023-05-22T11:23:11.430Z,21.69
2023-05-22T11:25:41.442Z,21.47
2023-05-22T11:28:10.832Z,21.60
2023-05-22T11:30:38.966Z,21.67
2023-05-22T11:33:06.871Z,21.95
2023-05-22T11:35:34.662Z,21.80
2023-05-22T11:38:06.432Z,21.31
2023-05-22T11:40:33.557Z,20.19
2023-05-22T11:43:00.763Z,20.80
2023-05-22T11:45:27.873Z,20.45
2023-05-22T11:47:55.921Z,19.97
2023-05-22T11:50:40.325Z,20.23
2023-05-22T11:53:08.767Z,20.29
2023-05-22T11:55:36.001Z,20.34
2023-05-22T11:58:03.085Z,20.36
2023-05-22T12:00:36.705Z,19.50
2023-05-22T12:03:04.377Z,18.68
2023-05-22T12:05:32.873Z,19.37
2023-05-22T12:08:00.186Z,19.25
2023-05-22T12:10:27.323Z,19.10
2023-05-22T12:12:55.257Z,19.20
2023-05-22T12:15:22.460Z,17.99
2023-05-22T12:17:49.550Z,17.61
2023-05-22T12:20:16.826Z,18.27
2023-05-22T12:22:44.293Z,18.09
2023-05-22T12:25:16.621Z,17.60
2023-05-22T12:27:45.735Z,17.40
2023-05-22T12:30:15.149Z,17.79
2023-05-22T12:32:47.492Z,18.01
2023-05-22T12:35:17.979Z,18.11
2023-05-22T12:37:52.223Z,18.28
2023-05-22T12:40:19.596Z,18.35
2023-05-22T12:42:48.293Z,18.26
2023-05-22T12:45:15.538Z,18.06
2023-05-22T12:47:42.642Z,17.94
2023-05-22T12:50:10.038Z,17.59
2023-05-22T12:52:37.286Z,17.24
2023-05-22T12:55:04.849Z,17.45
2023-05-22T12:57:31.981Z,17.81
2023-05-22T12:59:59.003Z,18.07
2023-05-22T13:02:26.228Z,17.55
2023-05-22T13:04:53.380Z,16.97
2023-05-22T13:07:20.760Z,17.15
2023-05-22T13:09:47.851Z,16.96
2023-05-22T13:12:14.962Z,16.80
2023-05-22T13:14:42.195Z,16.59
2023-05-22T13:17:09.391Z,17.23
2023-05-22T13:19:36.724Z,17.43
2023-05-22T13:22:04.087Z,17.75
2023-05-22T13:24:31.164Z,17.97
2023-05-22T13:26:58.249Z,17.31
2023-05-22T13:29:25.339Z,16.96
2023-05-22T13:31:52.437Z,17.04
2023-05-22T13:34:19.672Z,17.63
2023-05-22T13:36:47.016Z,17.28
2023-05-22T13:39:14.124Z,16.74
2023-05-22T13:41:41.273Z,17.02
2023-05-22T13:44:08.471Z,17.14
2023-05-22T13:46:36.134Z,16.77
2023-05-22T13:49:05.018Z,17.13
2023-05-22T13:51:32.084Z,17.37
2023-05-22T13:53:59.055Z,17.43
2023-05-22T13:56:26.376Z,17.16
2023-05-22T13:58:53.447Z,16.91
2023-05-22T14:01:20.502Z,16.76
2023-05-22T14:03:47.701Z,17.55
2023-05-22T14:06:14.851Z,18.37
2023-05-22T14:08:41.934Z,19.75
2023-05-22T14:11:09.007Z,19.42
2023-05-22T14:13:36.368Z,18.45
2023-05-22T14:16:03.529Z,18.76
2023-05-22T14:18:31.627Z,19.47
2023-05-22T14:20:58.685Z,19.35
2023-05-22T14:23:25.838Z,19.40
2023-05-22T14:25:53.042Z,19.33
2023-05-22T14:28:20.129Z,19.01
2023-05-22T14:30:47.388Z,19.02
2023-05-22T14:33:14.645Z,19.22
2023-05-22T14:35:41.873Z,19.13
2023-05-22T14:38:09.131Z,18.58
2023-05-22T14:40:36.259Z,18.91
2023-05-22T14:43:05.880Z,18.78
2023-05-22T14:45:32.890Z,18.93
2023-05-22T14:47:59.940Z,19.05
2023-05-22T14:50:27.121Z,19.01
2023-05-22T14:52:54.248Z,18.69
2023-05-22T14:55:22.158Z,18.52
2023-05-22T14:57:49.342Z,18.77
2023-05-22T15:00:16.826Z,18.80
2023-05-22T15:02:44.009Z,18.76
2023-05-22T15:05:11.432Z,18.75
2023-05-22T15:10:09.440Z,18.82
2023-05-22T15:12:37.205Z,18.59
2023-05-22T15:15:04.579Z,18.14
2023-05-22T15:17:31.674Z,18.20
2023-05-22T15:19:58.739Z,18.48
2023-05-22T15:22:26.077Z,18.39
2023-05-22T15:25:07.861Z,17.97
2023-05-22T15:27:36.131Z,18.16
2023-05-22T15:30:04.555Z,18.13
2023-05-22T15:32:36.393Z,18.36
2023-05-22T15:35:03.624Z,17.97
2023-05-22T15:37:34.298Z,18.03
2023-05-22T15:40:02.115Z,17.77
2023-05-22T15:42:29.367Z,17.89
2023-05-22T15:44:58.292Z,17.96
2023-05-22T15:47:25.657Z,18.01
2023-05-22T15:49:52.813Z,18.08
2023-05-22T15:52:21.235Z,18.00
2023-05-22T15:54:48.367Z,18.23
2023-05-22T15:57:15.734Z,17.96
2023-05-22T15:59:42.845Z,17.86
2023-05-22T16:02:09.856Z,17.70
2023-05-22T16:04:37.072Z,17.89
2023-05-22T16:07:04.224Z,17.95
2023-05-22T16:09:32.763Z,17.90
2023-05-22T16:12:00.066Z,17.88
2023-05-22T16:14:27.210Z,17.29
2023-05-22T16:16:54.198Z,17.52
2023-05-22T16:19:21.426Z,17.32
2023-05-22T16:21:48.655Z,17.41
2023-05-22T16:24:15.799Z,17.38
2023-05-22T16:26:42.862Z,17.10
2023-05-22T16:29:09.935Z,16.93
2023-05-22T16:31:37.069Z,16.87
2023-05-22T16:34:05.436Z,16.92
2023-05-22T16:36:33.010Z,17.06
2023-05-22T16:39:00.057Z,17.10
2023-05-22T16:41:27.733Z,16.77
2023-05-22T16:43:54.753Z,16.56
2023-05-22T16:46:22.184Z,16.40
2023-05-22T16:48:50.537Z,16.31
2023-05-22T16:51:17.582Z,16.25
2023-05-22T16:53:44.801Z,16.04
2023-05-22T16:56:11.915Z,15.82
2023-05-22T16:58:39.065Z,15.86
2023-05-22T17:01:09.227Z,15.85
2023-05-22T17:03:36.625Z,15.73
2023-05-22T17:06:04.871Z,15.61
2023-05-22T17:08:32.295Z,15.55
2023-05-22T17:10:59.377Z,15.54
2023-05-22T17:13:26.469Z,15.42
2023-05-22T17:15:53.473Z,15.18
2023-05-22T17:18:21.051Z,15.04
2023-05-22T17:20:49.450Z,14.96
2023-05-22T17:23:16.737Z,14.88
2023-05-22T17:25:46.815Z,14.73
2023-05-22T17:28:14.760Z,14.55
2023-05-22T17:30:44.206Z,14.35
2023-05-22T17:33:12.357Z,14.42
2023-05-22T17:35:39.420Z,14.40
2023-05-22T17:38:08.593Z,14.39
2023-05-22T17:40:44.990Z,14.31
2023-05-22T17:43:14.034Z,14.29
2023-05-22T17:45:41.846Z,14.20
2023-05-22T17:48:09.150Z,14.13
2023-05-22T17:50:36.245Z,14.02
2023-05-22T17:53:03.457Z,13.96
2023-05-22T17:55:30.504Z,13.93
2023-05-22T17:57:57.757Z,13.95
2023-05-22T18:00:24.820Z,13.86
2023-05-22T18:02:51.984Z,13.68
2023-05-22T18:05:19.096Z,13.50
2023-05-22T18:07:46.099Z,13.48
2023-05-22T18:10:13.272Z,13.53
2023-05-22T18:12:40.469Z,13.60
2023-05-22T18:15:10.767Z,13.53
2023-05-22T18:17:38.733Z,13.56
2023-05-22T18:20:09.552Z,13.61
2023-05-22T18:22:38.422Z,13.68
2023-05-22T18:25:06.962Z,13.68
2023-05-22T18:27:34.542Z,13.71
2023-05-22T18:30:02.033Z,13.70
2023-05-22T18:32:29.113Z,13.63
2023-05-22T18:34:58.648Z,13.61
2023-05-22T18:37:26.135Z,13.53
2023-05-22T18:39:53.327Z,13.54
2023-05-22T18:42:20.546Z,13.55
2023-05-22T18:44:49.170Z,13.52
2023-05-22T18:47:17.010Z,13.51
2023-05-22T18:49:44.125Z,13.55
2023-05-22T18:52:11.235Z,13.51
2023-05-22T18:54:38.311Z,13.55
2023-05-22T18:57:05.640Z,13.47
2023-05-22T18:59:32.709Z,13.29
2023-05-22T19:01:59.769Z,13.11
2023-05-22T19:04:26.930Z,13.04
2023-05-22T19:06:54.061Z,12.96
2023-05-22T19:09:21.312Z,12.91
2023-05-22T19:11:48.366Z,12.79
2023-05-22T19:14:15.608Z,12.81
2023-05-22T19:16:43.888Z,12.86
2023-05-22T19:19:11.773Z,12.94
2023-05-22T19:21:39.068Z,12.98
2023-05-22T19:24:07.050Z,12.93
2023-05-22T19:26:34.104Z,12.70
2023-05-22T19:29:01.192Z,12.72
2023-05-22T19:31:31.426Z,12.79
2023-05-22T19:33:58.543Z,12.82
2023-05-22T19:36:25.841Z,12.75
2023-05-22T19:38:53.675Z,12.66
2023-05-22T19:41:21.697Z,12.55
2023-05-22T19:43:48.751Z,12.56
2023-05-22T19:46:15.859Z,12.52
2023-05-22T19:48:42.953Z,12.45
2023-05-22T19:51:10.059Z,12.36
2023-05-22T19:53:37.487Z,12.25
2023-05-22T19:56:04.567Z,12.19
2023-05-22T19:58:31.552Z,12.02
2023-05-22T20:00:58.617Z,11.84
2023-05-22T20:03:26.586Z,11.74
2023-05-22T20:05:53.890Z,11.70
2023-05-22T20:08:25.661Z,11.74
2023-05-22T20:10:52.966Z,11.73
2023-05-22T20:13:20.026Z,11.65
2023-05-22T20:15:51.510Z,11.47
2023-05-22T20:18:18.715Z,11.36
2023-05-22T20:20:45.815Z,11.38
2023-05-22T20:23:13.115Z,11.44
2023-05-22T20:25:40.411Z,11.44
2023-05-22T20:28:07.594Z,11.35
2023-05-22T20:30:34.611Z,11.25
2023-05-22T20:33:01.748Z,11.09
2023-05-22T20:35:30.665Z,11.09
2023-05-22T20:38:03.193Z,11.08
2023-05-22T20:40:32.526Z,10.99
2023-05-22T20:43:02.662Z,11.00
2023-05-22T20:45:30.887Z,11.15
2023-05-22T20:47:58.029Z,11.17
2023-05-22T20:50:25.108Z,11.25
2023-05-22T20:52:52.988Z,11.39
2023-05-22T20:55:20.059Z,11.54
2023-05-22T20:57:47.149Z,11.66
2023-05-22T21:00:14.857Z,11.73
2023-05-22T21:02:42.037Z,11.74
2023-05-22T21:05:09.469Z,11.75
2023-05-22T21:07:36.543Z,11.75
2023-05-22T21:10:03.881Z,11.78
2023-05-22T21:12:30.955Z,11.77
2023-05-22T21:14:58.091Z,11.79
2023-05-22T21:17:26.039Z,11.71
2023-05-22T21:19:53.258Z,11.55
2023-05-22T21:22:20.627Z,11.53
2023-05-22T21:24:48.040Z,11.53
2023-05-22T21:27:15.174Z,11.58
2023-05-22T21:29:42.171Z,11.63
2023-05-22T21:32:09.215Z,11.64
2023-05-22T21:34:36.243Z,11.63
2023-05-22T21:37:03.255Z,11.67
2023-05-22T21:39:30.320Z,11.74
2023-05-22T21:41:57.354Z,11.79
2023-05-22T21:44:24.365Z,11.79
2023-05-22T21:46:51.625Z,11.84
2023-05-22T21:49:18.659Z,11.94
2023-05-22T21:51:45.706Z,12.04
2023-05-22T21:54:12.772Z,12.10
2023-05-22T21:56:39.809Z,12.14
2023-05-22T21:59:06.862Z,12.18
2023-05-22T22:01:33.957Z,12.15
2023-05-22T22:04:01.219Z,12.09
2023-05-22T22:06:28.360Z,12.03
2023-05-22T22:08:58.004Z,12.09
2023-05-22T22:11:24.983Z,12.04
2023-05-22T22:13:52.271Z,12.12
2023-05-22T22:16:19.460Z,12.22
2023-05-22T22:18:49.147Z,12.24
2023-05-22T22:21:16.422Z,12.18
2023-05-22T22:23:43.423Z,12.09
2023-05-22T22:26:12.255Z,12.09
2023-05-22T22:28:39.326Z,12.05
2023-05-22T22:31:06.495Z,12.05
2023-05-22T22:33:33.516Z,12.06
2023-05-22T22:36:00.493Z,12.09
2023-05-22T22:38:27.561Z,12.10
2023-05-22T22:40:54.807Z,12.09
2023-05-22T22:43:21.875Z,12.10
2023-05-22T22:45:48.902Z,12.09
2023-05-22T22:48:16.773Z,12.07
2023-05-22T22:50:44.229Z,12.13
2023-05-22T22:53:11.234Z,12.18
2023-05-22T22:55:38.574Z,12.25
2023-05-22T22:58:06.891Z,12.28
2023-05-22T23:00:33.994Z,12.23
2023-05-22T23:03:01.272Z,12.26
2023-05-22T23:05:28.516Z,12.29
2023-05-22T23:07:55.576Z,12.25
2023-05-22T23:10:22.642Z,12.28
2023-05-22T23:12:50.364Z,12.32
2023-05-22T23:15:17.598Z,12.36
2023-05-22T23:17:44.757Z,12.41
2023-05-22T23:20:11.929Z,12.42
2023-05-22T23:22:38.972Z,12.45
2023-05-22T23:25:06.608Z,12.41
2023-05-22T23:27:33.749Z,12.40
2023-05-22T23:30:00.797Z,12.41
2023-05-22T23:32:28.701Z,12.46
2023-05-22T23:34:55.949Z,12.45
2023-05-22T23:37:22.984Z,12.42
2023-05-22T23:39:50.028Z,12.44
2023-05-22T23:42:17.337Z,12.44
2023-05-22T23:44:44.395Z,12.44
2023-05-22T23:47:11.553Z,12.49
2023-05-22T23:49:38.647Z,12.46
2023-05-22T23:52:05.698Z,12.42
2023-05-22T23:54:32.685Z,12.45
2023-05-22T23:56:59.719Z,12.49
2023-05-22T23:59:26.737Z,12.57
